Flight Track Log - Related Links

Times and Time Zones

All times are in EDT time to prevent confusion due to time zone crossing. See the AUB1737 flight status page for this flight to view local times or setup timezone preferences in your user account.

Time Position Orientation Groundspeed Altitude Reporting Facility
EDT Latitude Longitude Course Direction KTS MPH feet Rate Location/Type
Sun 06:06:00 AM 41.9097 19.2315 324° Northwest  Level Estimated
Sun 06:07:00 AM 41.9920 19.1493 323° Northwest  Level Estimated
Sun 06:08:00 AM 42.0742 19.0669 323° Northwest  Level Estimated
Sun 06:09:00 AM 42.1564 18.9842 323° Northwest  Level Estimated
Sun 06:10:00 AM 42.2385 18.9013 323° Northwest  Level Estimated
Sun 06:11:00 AM 42.3206 18.8182 323° Northwest  Level Estimated
Sun 06:12:00 AM 42.4026 18.7349 323° Northwest  Level Estimated
Sun 06:13:00 AM 42.4845 18.6514 323° Northwest  Level Estimated
Sun 06:14:00 AM 42.5664 18.5676 323° Northwest  Level Estimated
Sun 06:15:00 AM 42.6482 18.4836 323° Northwest  Level Estimated
Sun 06:16:00 AM 42.7299 18.3995 323° Northwest  Level Estimated
Sun 06:17:00 AM 42.8116 18.3150 323° Northwest  Level Estimated
Sun 06:18:00 AM 42.8933 18.2304 323° Northwest  Level Estimated
Sun 06:19:00 AM 42.9748 18.1455 323° Northwest  Level Estimated
Sun 06:20:00 AM 43.0563 18.0604 323° Northwest  Level Estimated
Sun 06:21:00 AM 43.1378 17.9751 323° Northwest  Level Estimated
Sun 06:22:00 AM 43.2192 17.8896 323° Northwest  Level Estimated
Sun 06:23:00 AM 43.3005 17.8038 322° Northwest  Level Estimated
Sun 06:24:00 AM 43.3817 17.7178 322° Northwest  Level Estimated
Sun 06:25:00 AM 43.4629 17.6316 322° Northwest  Level Estimated
Sun 06:26:00 AM 43.5440 17.5451 322° Northwest  Level Estimated
Sun 06:27:00 AM 43.6251 17.4585 322° Northwest  Level Estimated
Sun 06:28:00 AM 43.7061 17.3715 322° Northwest  Level Estimated
Sun 06:29:00 AM 43.7870 17.2844 322° Northwest  Level Estimated
Sun 06:30:00 AM 43.8678 17.1970 322° Northwest  Level Estimated
Sun 06:31:00 AM 43.9486 17.1093 322° Northwest  Level Estimated
Sun 06:32:00 AM 44.0293 17.0214 322° Northwest  Level Estimated
Sun 06:33:00 AM 44.1100 16.9333 322° Northwest  Level Estimated
Sun 06:34:00 AM 44.1906 16.8450 322° Northwest  Level Estimated
Sun 06:35:00 AM 44.2711 16.7564 322° Northwest  Level Estimated
Sun 06:36:00 AM 44.3515 16.6675 322° Northwest  Level Estimated
Sun 06:37:00 AM 44.4319 16.5784 322° Northwest  Level Estimated
Sun 06:38:00 AM 44.5122 16.4891 322° Northwest  Level Estimated
Sun 06:39:00 AM 44.5925 16.3995 322° Northwest  Level Estimated
Sun 06:40:00 AM 44.6726 16.3097 321° Northwest  Level Estimated
Sun 06:41:00 AM 44.7527 16.2196 321° Northwest  Level Estimated
Sun 06:42:00 AM 44.8328 16.1293 321° Northwest  Level Estimated
Sun 06:43:00 AM 44.9127 16.0387 321° Northwest  Level Estimated
Sun 06:44:00 AM 44.9926 15.9479 321° Northwest  Level Estimated
Sun 06:45:00 AM 45.0724 15.8568 321° Northwest  Level Estimated
Sun 06:46:00 AM 45.1521 15.7655 321° Northwest  Level Estimated
Sun 06:47:00 AM 45.2318 15.6739 321° Northwest  Level Estimated
Sun 06:48:00 AM 45.3114 15.5821 321° Northwest  Level Estimated
Sun 06:49:00 AM 45.3909 15.4900 321° Northwest  Level Estimated
Sun 06:50:00 AM 45.4704 15.3976 321° Northwest  Level Estimated
Sun 06:51:00 AM 45.5498 15.3050 321° Northwest  Level Estimated
Sun 06:52:00 AM 45.6291 15.2121 321° Northwest  Level Estimated
Sun 06:53:00 AM 45.7083 15.1189 321° Northwest  Level Estimated
Sun 06:54:00 AM 45.7874 15.0255 321° Northwest  Level Estimated
Sun 06:55:00 AM 45.8665 14.9318 320° Northwest  Level Estimated
Sun 06:56:00 AM 45.9455 14.8379 320° Northwest  Level Estimated
Sun 06:57:00 AM 46.0244 14.7437 320° Northwest  Level Estimated
Sun 06:58:00 AM 46.1032 14.6492 320° Northwest  Level Estimated
Sun 06:59:00 AM 46.1820 14.5544 320° Northwest  Level Estimated
Sun 07:00:00 AM 46.2607 14.4594 320° Northwest  Level Estimated
Sun 07:01:00 AM 46.3393 14.3641 320° Northwest  Level Estimated
Sun 07:02:00 AM 46.4178 14.2685 320° Northwest  Level Estimated
Sun 07:03:00 AM 46.4962 14.1727 320° Northwest  Level Estimated
Sun 07:04:00 AM 46.5746 14.0766 320° Northwest  Level Estimated
Sun 07:05:00 AM 46.6529 13.9802 320° Northwest  Level Estimated
Sun 07:06:00 AM 46.7311 13.8835 320° Northwest  Level Estimated
Sun 07:07:00 AM 46.8092 13.7865 320° Northwest  Level Estimated
Sun 07:08:00 AM 46.8872 13.6893 320° Northwest  Level Estimated
Sun 07:09:00 AM 46.9652 13.5917 320° Northwest  Level Estimated
Sun 07:10:00 AM 47.0430 13.4939 319° Northwest  Level Estimated
Sun 07:11:00 AM 47.1208 13.3958 319° Northwest  Level Estimated
Sun 07:12:00 AM 47.1985 13.2974 319° Northwest  Level Estimated
Sun 07:13:00 AM 47.2727 13.2031 319° Northwest  Level Estimated
Sun 07:14:00 AM 47.3469 13.1085 319° Northwest  Level Estimated
Sun 07:15:00 AM 47.4209 13.0136 319° Northwest  Level Estimated
Sun 07:16:00 AM 47.4949 12.9185 319° Northwest  Level Estimated
Sun 07:17:00 AM 47.5688 12.8231 319° Northwest  Level Estimated
Sun 07:18:00 AM 47.6426 12.7275 319° Northwest  Level Estimated
Sun 07:19:00 AM 47.7332 12.6094 319° Northwest  Level Estimated
Sun 07:20:00 AM 47.8238 12.4910 319° Northwest  Level Estimated
Sun 07:21:00 AM 47.9142 12.3722 319° Northwest  Level Estimated
Sun 07:22:00 AM 48.0045 12.2529 319° Northwest  Level Estimated
Sun 07:23:00 AM 48.0947 12.1332 318° Northwest  Level Estimated
Sun 07:24:00 AM 48.1847 12.0132 318° Northwest  Level Estimated
Sun 07:25:00 AM 48.2747 11.8926 318° Northwest  Level Estimated
Sun 07:26:00 AM 48.3538 11.7861 318° Northwest  Level Estimated
Sun 07:27:00 AM 48.3538 11.7861 318° Northwest  Level Estimated
Sun 07:28:00 AM 48.3538 11.7861 318° Northwest  Level Estimated
Sun 07:29:00 AM 48.3538 11.7861 318° Northwest  Level Estimated
Sun 07:30:00 AM 48.3538 11.7861 318° Northwest  Level Estimated

Login

Don't have an account? Register now (free) for customized features, flight alerts, and more!